Time;durP1;ratioP1;P1;durP2;ratioP2;P2;SDS_P1;SDS_P2;PMS_P1;PMS_P2;Temp;Humidity;BMP_temperature;BMP_pressure;BME280_temperature;BME280_humidity;BME280_pressure;Samples;Min_cycle;Max_cycle;Signal;HPM_P1;HPM_P2
2023/12/26 00:02:00;;;;;;;8.20;3.63;;;;;;;7.47;100.00;99383.13;5060055;28;20472;-79
2023/12/26 00:04:34;;;;;;;8.40;3.47;;;;;;;7.34;100.00;99370.34;5066599;28;20426;-78
2023/12/26 00:07:02;;;;;;;7.20;3.20;;;;;;;7.36;100.00;99365.44;5085587;28;20428;-79
2023/12/26 00:09:39;;;;;;;8.50;3.27;;;;;;;7.40;100.00;99351.03;5066784;28;20422;-78
2023/12/26 00:12:07;;;;;;;9.13;3.22;;;;;;;7.35;100.00;99351.09;5082707;28;20418;-78
2023/12/26 00:14:41;;;;;;;9.40;3.70;;;;;;;7.44;100.00;99337.72;5066339;28;20433;-76
2023/12/26 00:17:10;;;;;;;11.02;4.00;;;;;;;7.45;100.00;99334.72;5062863;28;20418;-78
2023/12/26 00:19:45;;;;;;;8.15;3.70;;;;;;;7.42;100.00;99332.59;5067582;28;20422;-79
2023/12/26 00:22:14;;;;;;;8.13;3.60;;;;;;;7.49;100.00;99316.78;5082607;28;20427;-77
2023/12/26 00:24:42;;;;;;;7.35;3.40;;;;;;;7.42;100.00;99318.25;5065171;28;20421;-77
2023/12/26 00:27:16;;;;;;;9.65;3.35;;;;;;;7.37;100.00;99313.72;5085755;28;20429;-79
2023/12/26 00:29:51;;;;;;;7.27;3.77;;;;;;;7.38;100.00;99314.53;5065524;28;20540;-77
2023/12/26 00:32:21;;;;;;;8.52;3.67;;;;;;;7.44;100.00;99306.06;5083516;28;20423;-77
2023/12/26 00:34:49;;;;;;;10.15;3.55;;;;;;;7.47;100.00;99312.75;5067639;28;20446;-80
2023/12/26 00:37:23;;;;;;;8.13;3.70;;;;;;;7.58;100.00;99299.88;5067126;28;20936;-77
2023/12/26 00:39:52;;;;;;;8.77;3.47;;;;;;;7.51;100.00;99310.28;5067815;28;20770;-80
2023/12/26 00:42:20;;;;;;;8.17;3.53;;;;;;;7.42;100.00;99304.72;5084337;28;20484;-77
2023/12/26 00:44:48;;;;;;;7.30;3.20;;;;;;;7.47;100.00;99297.34;5066852;28;20430;-78
2023/12/26 00:47:17;;;;;;;8.23;3.20;;;;;;;7.49;100.00;99289.72;5068413;28;20457;-78
2023/12/26 00:49:46;;;;;;;6.05;2.65;;;;;;;7.41;100.00;99292.28;5066331;28;20790;-80
2023/12/26 00:52:20;;;;;;;5.28;2.60;;;;;;;7.40;100.00;99306.91;5064742;28;20773;-78
2023/12/26 00:54:54;;;;;;;5.82;2.85;;;;;;;7.42;100.00;99289.28;5064064;28;20418;-77
2023/12/26 00:57:23;;;;;;;7.55;2.60;;;;;;;7.42;100.00;99297.41;5073714;28;20417;-78
2023/12/26 00:59:51;;;;;;;7.78;2.47;;;;;;;7.41;100.00;99295.78;5066684;28;20431;-78
2023/12/26 01:02:22;;;;;;;6.60;2.42;;;;;;;7.41;100.00;99312.03;5084782;28;20425;-79
2023/12/26 01:04:52;;;;;;;4.32;2.20;;;;;;;7.43;100.00;99295.50;5067664;28;20422;-79
2023/12/26 01:07:20;;;;;;;4.40;2.10;;;;;;;7.43;100.00;99300.91;5062712;28;20452;-78
2023/12/26 01:09:54;;;;;;;6.37;1.97;;;;;;;7.35;100.00;99306.97;5063880;28;20423;-78
2023/12/26 01:12:27;;;;;;;5.25;1.90;;;;;;;7.46;100.00;99308.47;5067494;28;20919;-77
2023/12/26 01:14:55;;;;;;;4.35;1.65;;;;;;;7.35;100.00;99310.50;5065490;28;20440;-77
2023/12/26 01:17:25;;;;;;;4.10;1.50;;;;;;;7.38;100.00;99306.41;5063601;28;20425;-78
2023/12/26 01:19:55;;;;;;;4.80;1.50;;;;;;;7.32;100.00;99302.97;5065683;28;20421;-78
2023/12/26 01:22:23;;;;;;;3.58;1.20;;;;;;;7.41;100.00;99284.16;5061959;28;20443;-77
2023/12/26 01:24:56;;;;;;;3.65;1.30;;;;;;;7.40;100.00;99279.84;5067003;28;20414;-78
2023/12/26 01:27:30;;;;;;;2.90;1.00;;;;;;;7.24;100.00;99263.84;5084321;28;20433;-78
2023/12/26 01:29:59;;;;;;;3.75;1.10;;;;;;;7.37;100.00;99266.91;5066654;28;20426;-78
2023/12/26 01:32:28;;;;;;;2.97;1.20;;;;;;;7.22;100.00;99270.63;5063548;28;20433;-78
2023/12/26 01:35:02;;;;;;;2.65;1.00;;;;;;;7.24;100.00;99284.69;5063464;28;20419;-77
2023/12/26 01:37:36;;;;;;;1.92;0.80;;;;;;;7.25;100.00;99273.56;5063550;28;21212;-76
2023/12/26 01:40:05;;;;;;;3.03;0.90;;;;;;;7.26;100.00;99288.69;5084096;28;20424;-78
2023/12/26 01:42:33;;;;;;;2.40;0.90;;;;;;;7.22;100.00;99284.16;5084520;28;20422;-78
2023/12/26 01:45:02;;;;;;;3.37;0.80;;;;;;;7.29;100.00;99271.06;5083994;28;20424;-77
2023/12/26 01:47:36;;;;;;;2.03;0.80;;;;;;;7.30;100.00;99280.78;5082927;28;20423;-79
2023/12/26 01:50:07;;;;;;;3.28;1.10;;;;;;;7.35;100.00;99283.44;5065056;28;20422;-78
2023/12/26 01:52:42;;;;;;;1.40;0.80;;;;;;;7.29;100.00;99280.00;5084885;28;20429;-78
2023/12/26 01:55:18;;;;;;;1.83;0.82;;;;;;;7.31;100.00;99275.09;5085016;28;20426;-80
2023/12/26 01:57:55;;;;;;;2.45;0.90;;;;;;;7.30;100.00;99265.34;5085105;28;20882;-77
2023/12/26 02:00:23;;;;;;;2.17;0.98;;;;;;;7.29;100.00;99261.06;5062975;28;20444;-77
2023/12/26 02:02:52;;;;;;;3.75;1.23;;;;;;;7.36;100.00;99266.13;5083588;28;20426;-79
2023/12/26 02:05:28;;;;;;;2.30;1.10;;;;;;;7.27;100.00;99255.13;5081048;28;20867;-78
2023/12/26 02:08:01;;;;;;;4.53;1.30;;;;;;;7.32;100.00;99246.16;5065037;28;20433;-77
2023/12/26 02:10:30;;;;;;;5.15;1.55;;;;;;;7.30;100.00;99245.63;5066099;28;20437;-78
2023/12/26 02:13:03;;;;;;;3.47;1.48;;;;;;;7.29;100.00;99258.34;5061101;28;20426;-78
2023/12/26 02:15:31;;;;;;;3.88;1.63;;;;;;;7.25;100.00;99249.22;5062759;28;20425;-78
2023/12/26 02:18:00;;;;;;;5.20;1.90;;;;;;;7.29;100.00;99252.13;5067227;28;20442;-79
2023/12/26 02:20:30;;;;;;;4.87;1.93;;;;;;;7.35;100.00;99247.44;5071303;28;20445;-78
2023/12/26 02:22:58;;;;;;;3.45;1.88;;;;;;;7.39;100.00;99238.44;5061800;28;20422;-78
2023/12/26 02:25:27;;;;;;;5.78;2.00;;;;;;;7.37;100.00;99234.44;5064636;28;20437;-79
2023/12/26 02:27:56;;;;;;;4.63;1.90;;;;;;;7.28;100.00;99232.38;5066123;28;20438;-78
2023/12/26 02:30:30;;;;;;;5.00;2.05;;;;;;;7.40;100.00;99236.53;5084395;28;20438;-78
2023/12/26 02:33:05;;;;;;;5.20;2.25;;;;;;;7.38;100.00;99226.00;5064859;28;20427;-78
2023/12/26 02:35:34;;;;;;;5.13;2.13;;;;;;;7.43;100.00;99222.41;5061121;28;20432;-78
2023/12/26 02:38:07;;;;;;;3.92;2.13;;;;;;;7.35;100.00;99215.78;5080687;28;20814;-77
2023/12/26 02:40:37;;;;;;;4.90;2.20;;;;;;;7.41;100.00;99222.72;5080348;28;20524;-78
2023/12/26 02:43:06;;;;;;;4.32;2.03;;;;;;;7.43;100.00;99222.41;5062966;28;20444;-77
2023/12/26 02:45:34;;;;;;;3.30;1.83;;;;;;;7.50;100.00;99214.75;5063697;28;20484;-77
2023/12/26 02:48:02;;;;;;;3.70;2.10;;;;;;;7.52;100.00;99217.16;5082582;28;20417;-78
2023/12/26 02:50:31;;;;;;;4.93;2.10;;;;;;;7.54;100.00;99218.47;5062839;28;20423;-77
2023/12/26 02:53:05;;;;;;;4.18;1.98;;;;;;;7.50;100.00;99222.88;5079432;28;20897;-78
2023/12/26 02:55:33;;;;;;;4.45;2.13;;;;;;;7.55;100.00;99217.34;5064949;28;20429;-78
2023/12/26 02:58:08;;;;;;;4.35;2.08;;;;;;;7.61;100.00;99218.88;5061337;28;20429;-78
2023/12/26 03:00:36;;;;;;;2.60;1.70;;;;;;;7.61;100.00;99215.34;5060814;28;20614;-77
2023/12/26 03:03:06;;;;;;;3.33;1.70;;;;;;;7.57;100.00;99225.19;5065732;28;20974;-78
2023/12/26 03:05:34;;;;;;;2.78;1.60;;;;;;;7.55;100.00;99220.06;5084527;28;20429;-78
2023/12/26 03:08:03;;;;;;;4.05;1.70;;;;;;;7.55;100.00;99211.13;5059465;28;20767;-77
2023/12/26 03:10:36;;;;;;;2.90;1.70;;;;;;;7.48;100.00;99209.63;5064093;28;20445;-78
2023/12/26 03:13:05;;;;;;;2.77;1.50;;;;;;;7.46;100.00;99208.31;5079662;28;20426;-78
2023/12/26 03:15:41;;;;;;;4.10;1.90;;;;;;;7.49;100.00;99207.72;5063281;28;21375;-78
2023/12/26 03:18:11;;;;;;;4.03;1.65;;;;;;;7.55;100.00;99217.34;5079772;28;20436;-78
2023/12/26 03:20:39;;;;;;;3.87;1.80;;;;;;;7.53;100.00;99207.94;5061563;28;20435;-78
2023/12/26 03:23:12;;;;;;;3.85;1.50;;;;;;;7.56;100.00;99212.75;5059605;28;20433;-77
2023/12/26 03:25:41;;;;;;;5.30;1.67;;;;;;;7.51;100.00;99221.75;5083030;28;20425;-79
2023/12/26 03:28:14;;;;;;;3.00;1.42;;;;;;;7.53;100.00;99207.94;5081130;28;20427;-78
2023/12/26 03:30:43;;;;;;;3.13;1.33;;;;;;;7.42;100.00;99208.09;5081689;28;20426;-78
2023/12/26 03:33:12;;;;;;;3.85;1.60;;;;;;;7.46;100.00;99208.31;5082910;28;20425;-78
2023/12/26 03:35:45;;;;;;;2.40;1.50;;;;;;;7.45;100.00;99202.06;5063391;28;20445;-78
2023/12/26 03:38:18;;;;;;;3.13;1.30;;;;;;;7.47;100.00;99212.59;5082286;28;20921;-77
2023/12/26 03:40:47;;;;;;;2.05;1.20;;;;;;;7.53;100.00;99218.75;5078989;28;20423;-78
2023/12/26 03:43:16;;;;;;;3.15;1.25;;;;;;;7.57;100.00;99217.88;5084104;28;20936;-80
2023/12/26 03:45:47;;;;;;;2.97;1.20;;;;;;;7.56;100.00;99208.13;5085660;28;20423;-79
2023/12/26 03:48:21;;;;;;;3.47;1.10;;;;;;;7.54;100.00;99198.69;5065691;28;20433;-78
2023/12/26 03:50:54;;;;;;;3.35;1.20;;;;;;;7.48;100.00;99204.22;5065878;28;20426;-78
2023/12/26 03:53:28;;;;;;;2.20;1.02;;;;;;;7.55;100.00;99209.22;5065164;28;20442;-80
2023/12/26 03:55:56;;;;;;;1.60;1.05;;;;;;;7.55;100.00;99222.75;5068280;28;20429;-78
2023/12/26 03:58:29;;;;;;;2.83;1.38;;;;;;;7.65;100.00;99216.38;5067595;28;20438;-78
2023/12/26 04:00:59;;;;;;;3.65;1.10;;;;;;;7.54;100.00;99233.88;5064368;28;20442;-78
2023/12/26 04:03:28;;;;;;;3.53;1.10;;;;;;;7.59;100.00;99226.50;5062137;28;20425;-78
2023/12/26 04:05:56;;;;;;;3.25;1.20;;;;;;;7.59;100.00;99231.91;5067630;28;20789;-78
2023/12/26 04:08:25;;;;;;;4.37;1.30;;;;;;;7.55;100.00;99247.13;5069062;28;20425;-78
2023/12/26 04:10:53;;;;;;;2.92;1.35;;;;;;;7.62;100.00;99254.88;5064801;28;20413;-78
2023/12/26 04:13:22;;;;;;;3.63;1.27;;;;;;;7.61;100.00;99253.25;5067642;28;20429;-77
2023/12/26 04:15:50;;;;;;;2.75;1.15;;;;;;;7.53;100.00;99260.16;5085160;28;20425;-78
2023/12/26 04:18:25;;;;;;;3.70;1.25;;;;;;;7.59;100.00;99267.09;5067349;28;20778;-77
2023/12/26 04:20:53;;;;;;;3.92;1.40;;;;;;;7.64;100.00;99268.94;5064412;28;20922;-78
2023/12/26 04:23:22;;;;;;;2.13;1.00;;;;;;;7.64;100.00;99260.81;5061020;28;20437;-78
2023/12/26 04:25:55;;;;;;;2.80;1.20;;;;;;;7.59;100.00;99261.69;5066890;28;20476;-79
2023/12/26 04:28:25;;;;;;;3.95;1.23;;;;;;;7.62;100.00;99273.81;5061369;28;20423;-77
2023/12/26 04:30:53;;;;;;;2.73;1.10;;;;;;;7.64;100.00;99271.66;5066367;28;20449;-80
2023/12/26 04:33:21;;;;;;;3.65;1.15;;;;;;;7.56;100.00;99262.28;5065365;28;20430;-78
2023/12/26 04:35:51;;;;;;;3.58;1.60;;;;;;;7.54;100.00;99259.06;5067948;28;20425;-78
2023/12/26 04:38:20;;;;;;;1.52;0.90;;;;;;;7.61;100.00;99269.50;5066101;28;20429;-79
2023/12/26 04:40:53;;;;;;;5.25;1.30;;;;;;;7.53;100.00;99281.81;5061206;28;20452;-77
2023/12/26 04:43:27;;;;;;;5.57;1.23;;;;;;;7.53;100.00;99284.53;5082437;28;20461;-79
2023/12/26 04:45:55;;;;;;;3.15;1.08;;;;;;;7.46;100.00;99281.41;5082273;28;20412;-77
2023/12/26 04:48:28;;;;;;;3.10;1.20;;;;;;;7.49;100.00;99287.00;5062756;28;20423;-79
2023/12/26 04:51:03;;;;;;;3.58;1.20;;;;;;;7.50;100.00;99274.28;5082355;28;20429;-78
2023/12/26 04:53:36;;;;;;;3.20;1.08;;;;;;;7.51;100.00;99275.88;5067019;28;20431;-79
2023/12/26 04:56:05;;;;;;;3.87;1.10;;;;;;;7.52;100.00;99291.03;5066603;28;20422;-78
2023/12/26 04:58:38;;;;;;;3.28;1.00;;;;;;;7.46;100.00;99289.50;5067253;28;20426;-79
2023/12/26 05:01:06;;;;;;;3.67;1.00;;;;;;;7.47;100.00;99288.41;5062610;28;20446;-78
2023/12/26 05:03:35;;;;;;;3.25;1.20;;;;;;;7.45;100.00;99296.03;5062398;28;20774;-77
2023/12/26 05:06:05;;;;;;;3.83;1.17;;;;;;;7.46;100.00;99300.34;5083119;28;20417;-78
2023/12/26 05:08:40;;;;;;;4.53;1.10;;;;;;;7.45;100.00;99306.84;5070426;28;20786;-80
2023/12/26 05:11:08;;;;;;;3.45;0.98;;;;;;;7.51;100.00;99316.50;5082324;28;20429;-78
2023/12/26 05:13:42;;;;;;;3.05;0.90;;;;;;;7.51;100.00;99323.81;5070526;28;20439;-78
2023/12/26 05:16:10;;;;;;;6.28;1.10;;;;;;;7.53;100.00;99340.59;5067988;28;20426;-77
2023/12/26 05:18:39;;;;;;;4.77;1.30;;;;;;;7.40;100.00;99342.09;5080290;28;20524;-78
2023/12/26 05:21:17;;;;;;;3.45;1.00;;;;;;;7.38;100.00;99336.19;5064807;28;20428;-77
2023/12/26 05:23:46;;;;;;;3.50;1.15;;;;;;;7.39;100.00;99368.38;5067343;28;20790;-78
2023/12/26 05:26:15;;;;;;;5.05;1.10;;;;;;;7.39;100.00;99368.38;5080223;28;21085;-77
2023/12/26 05:28:46;;;;;;;6.50;1.25;;;;;;;7.32;100.00;99376.84;5065379;28;20426;-78
2023/12/26 05:31:20;;;;;;;6.23;1.10;;;;;;;7.30;100.00;99361.97;5060912;28;20506;-78
2023/12/26 05:33:49;;;;;;;6.70;1.45;;;;;;;7.19;100.00;99366.72;5059319;28;20429;-78
2023/12/26 05:36:19;;;;;;;8.73;1.75;;;;;;;7.02;100.00;99367.19;5063307;28;20423;-79
2023/12/26 05:38:47;;;;;;;8.05;1.20;;;;;;;6.94;100.00;99371.31;5066308;28;20967;-78
2023/12/26 05:41:20;;;;;;;9.13;1.30;;;;;;;6.85;100.00;99362.25;5079524;28;20923;-78
2023/12/26 05:43:54;;;;;;;11.43;1.35;;;;;;;6.83;100.00;99382.56;5083432;28;20426;-78
2023/12/26 05:46:23;;;;;;;10.47;1.40;;;;;;;6.66;100.00;99391.91;5063096;28;20475;-78
2023/12/26 05:48:58;;;;;;;11.38;1.60;;;;;;;6.59;100.00;99389.53;5081037;28;20430;-78
2023/12/26 05:51:27;;;;;;;6.97;1.50;;;;;;;6.72;100.00;99395.38;5079737;28;20429;-78
2023/12/26 05:53:56;;;;;;;12.97;1.70;;;;;;;6.76;100.00;99399.91;5067626;28;20418;-79
2023/12/26 05:56:29;;;;;;;14.33;1.40;;;;;;;6.78;100.00;99408.56;5080117;28;20422;-77
2023/12/26 05:59:05;;;;;;;11.00;1.50;;;;;;;6.83;100.00;99415.00;5062586;28;20430;-78
2023/12/26 06:01:33;;;;;;;15.07;1.73;;;;;;;6.84;100.00;99430.94;5063069;28;20778;-79
2023/12/26 06:04:07;;;;;;;16.30;2.00;;;;;;;6.88;100.00;99425.78;5062778;28;20434;-78
2023/12/26 06:06:36;;;;;;;8.25;1.40;;;;;;;6.87;100.00;99424.16;5061400;28;20906;-79
2023/12/26 06:09:10;;;;;;;14.07;1.83;;;;;;;6.84;100.00;99427.44;5059434;28;20869;-78
2023/12/26 06:11:38;;;;;;;14.33;1.73;;;;;;;6.84;100.00;99435.56;5063485;28;20430;-78
2023/12/26 06:14:07;;;;;;;12.77;1.63;;;;;;;6.76;100.00;99453.19;5064066;28;20443;-78
2023/12/26 06:16:35;;;;;;;14.20;1.80;;;;;;;6.68;100.00;99440.28;5080983;28;20416;-79
2023/12/26 06:19:09;;;;;;;12.50;1.83;;;;;;;6.72;100.00;99454.84;5065153;28;20421;-78
2023/12/26 06:21:46;;;;;;;10.70;1.70;;;;;;;6.80;100.00;99452.31;5062530;28;20439;-78
2023/12/26 06:24:16;;;;;;;9.70;1.70;;;;;;;6.73;100.00;99462.69;5057089;28;20446;-78
2023/12/26 06:26:49;;;;;;;8.68;1.45;;;;;;;6.70;100.00;99473.25;5065469;28;20430;-79
2023/12/26 06:29:22;;;;;;;14.43;1.60;;;;;;;6.75;100.00;99473.19;5060179;28;20426;-77
2023/12/26 06:31:56;;;;;;;11.23;1.67;;;;;;;6.74;100.00;99472.41;5062982;28;20429;-80
2023/12/26 06:34:29;;;;;;;12.05;1.92;;;;;;;6.76;100.00;99467.50;5059748;28;20773;-77
2023/12/26 06:36:59;;;;;;;11.73;1.90;;;;;;;6.75;100.00;99473.19;5064091;28;20980;-78
2023/12/26 06:39:27;;;;;;;10.23;1.50;;;;;;;6.69;100.00;99467.03;5064637;28;20416;-78
2023/12/26 06:42:00;;;;;;;13.03;1.93;;;;;;;6.74;100.00;99493.22;5062859;28;20434;-78
2023/12/26 06:44:29;;;;;;;10.52;1.77;;;;;;;6.69;100.00;99499.47;5062605;28;20420;-79
2023/12/26 06:47:03;;;;;;;11.60;1.88;;;;;;;6.65;100.00;99501.13;5063008;28;21429;-80
2023/12/26 06:49:36;;;;;;;10.13;2.00;;;;;;;6.83;100.00;99501.53;5064511;28;20426;-79
2023/12/26 06:52:12;;;;;;;11.50;1.90;;;;;;;6.63;100.00;99503.31;5079295;28;20436;-78
2023/12/26 06:54:41;;;;;;;12.05;1.88;;;;;;;6.58;100.00;99497.94;5082550;28;20421;-79
2023/12/26 06:57:16;;;;;;;14.98;2.35;;;;;;;6.66;100.00;99515.44;5078989;28;20426;-80
2023/12/26 06:59:46;;;;;;;18.30;1.85;;;;;;;6.73;100.00;99519.47;5058989;28;20421;-78
2023/12/26 07:02:19;;;;;;;7.18;1.60;;;;;;;6.69;100.00;99531.13;5079675;28;20430;-79
2023/12/26 07:04:52;;;;;;;15.02;2.08;;;;;;;6.62;100.00;99515.22;5078431;28;20431;-77
2023/12/26 07:07:22;;;;;;;10.65;1.80;;;;;;;6.61;100.00;99519.00;5062483;28;21142;-78
2023/12/26 07:09:50;;;;;;;11.13;1.80;;;;;;;6.69;100.00;99534.63;5081150;28;20426;-78
2023/12/26 07:12:24;;;;;;;18.42;2.80;;;;;;;6.59;100.00;99540.13;5083248;28;20406;-78
2023/12/26 07:14:57;;;;;;;13.55;2.30;;;;;;;6.57;100.00;99539.59;5082117;28;20425;-79
2023/12/26 07:17:30;;;;;;;11.35;1.58;;;;;;;6.71;100.00;99551.38;5081441;28;20435;-78
2023/12/26 07:19:59;;;;;;;16.17;2.20;;;;;;;6.78;100.00;99542.94;5068501;28;20418;-78
2023/12/26 07:22:33;;;;;;;12.07;2.00;;;;;;;6.86;100.00;99549.66;5087599;28;20428;-78
2023/12/26 07:25:02;;;;;;;16.25;1.88;;;;;;;6.83;100.00;99551.00;5066594;28;20421;-78
2023/12/26 07:27:35;;;;;;;12.75;1.90;;;;;;;6.87;100.00;99545.84;5066725;28;20432;-78
2023/12/26 07:30:09;;;;;;;12.25;2.30;;;;;;;6.87;100.00;99562.09;5084006;28;20421;-78
2023/12/26 07:32:38;;;;;;;12.67;2.10;;;;;;;6.90;100.00;99564.22;5080505;28;20930;-79
2023/12/26 07:35:11;;;;;;;11.98;2.17;;;;;;;6.96;100.00;99571.19;5085225;28;20429;-78
2023/12/26 07:37:45;;;;;;;13.37;2.30;;;;;;;6.90;100.00;99569.63;5081324;28;20425;-80
2023/12/26 07:40:19;;;;;;;15.73;1.83;;;;;;;6.85;100.00;99578.59;5081529;28;20770;-78
2023/12/26 07:42:47;;;;;;;13.50;2.08;;;;;;;6.74;100.00;99593.25;5086903;28;20429;-78
2023/12/26 07:45:15;;;;;;;12.15;2.50;;;;;;;6.77;100.00;99587.31;5064881;28;20433;-78
2023/12/26 07:47:44;;;;;;;17.10;2.47;;;;;;;6.75;100.00;99594.88;5083254;28;20448;-78
2023/12/26 07:50:12;;;;;;;11.93;1.90;;;;;;;6.88;100.00;99596.16;5067517;28;20786;-77
2023/12/26 07:52:40;;;;;;;11.48;2.15;;;;;;;6.81;100.00;99581.03;5066396;28;20430;-78
2023/12/26 07:55:11;;;;;;;10.30;2.07;;;;;;;6.78;100.00;99610.53;5069861;28;20451;-78
2023/12/26 07:57:45;;;;;;;13.83;2.37;;;;;;;6.83;100.00;99610.50;5087008;28;20417;-77
2023/12/26 08:00:19;;;;;;;14.00;2.00;;;;;;;6.84;100.00;99624.84;5086502;28;20436;-78
2023/12/26 08:02:47;;;;;;;12.95;1.95;;;;;;;6.79;100.00;99625.69;5066985;28;20829;-78
2023/12/26 08:05:21;;;;;;;10.97;2.27;;;;;;;6.72;100.00;99626.00;5063175;28;20433;-79
2023/12/26 08:07:49;;;;;;;14.90;2.40;;;;;;;6.82;100.00;99641.34;5064659;28;20429;-78
2023/12/26 08:10:25;;;;;;;10.93;1.93;;;;;;;6.92;100.00;99630.47;5080746;28;20414;-78
2023/12/26 08:12:53;;;;;;;10.40;1.95;;;;;;;6.85;100.00;99642.69;5066722;28;20437;-79
2023/12/26 08:15:21;;;;;;;12.07;2.10;;;;;;;6.87;100.00;99641.31;5083742;28;20440;-79
2023/12/26 08:17:55;;;;;;;10.60;1.88;;;;;;;6.85;100.00;99659.72;5086387;28;20429;-78
2023/12/26 08:20:23;;;;;;;15.43;2.05;;;;;;;6.94;100.00;99649.13;5082778;28;20421;-79
2023/12/26 08:22:52;;;;;;;9.95;1.67;;;;;;;6.92;100.00;99645.91;5065847;28;20445;-78
2023/12/26 08:25:20;;;;;;;11.13;2.08;;;;;;;6.97;100.00;99652.06;5063745;28;20922;-78
2023/12/26 08:27:55;;;;;;;11.27;2.08;;;;;;;6.90;100.00;99673.19;5084364;28;20425;-79
2023/12/26 08:30:23;;;;;;;12.43;1.97;;;;;;;7.01;100.00;99668.53;5081617;28;20521;-81
2023/12/26 08:32:52;;;;;;;11.48;1.60;;;;;;;7.00;100.00;99666.91;5063591;28;20963;-78
2023/12/26 08:35:20;;;;;;;12.90;2.10;;;;;;;7.01;100.00;99673.94;5080503;28;20426;-78
2023/12/26 08:37:53;;;;;;;10.93;1.67;;;;;;;7.04;100.00;99678.78;5061360;28;20756;-79
2023/12/26 08:40:27;;;;;;;11.88;1.88;;;;;;;6.97;100.00;99672.91;5064072;28;20429;-78
2023/12/26 08:43:02;;;;;;;12.32;1.95;;;;;;;6.99;100.00;99681.56;5067776;28;20426;-79
2023/12/26 08:45:36;;;;;;;13.55;1.98;;;;;;;6.93;100.00;99698.88;5067306;28;20426;-78
2023/12/26 08:48:05;;;;;;;14.52;1.95;;;;;;;6.97;100.00;99694.53;5078545;28;20429;-77
2023/12/26 08:50:38;;;;;;;14.82;2.10;;;;;;;6.92;100.00;99689.19;5083464;28;20426;-78
2023/12/26 08:53:07;;;;;;;16.17;2.33;;;;;;;6.87;100.00;99695.41;5063324;28;20431;-79
2023/12/26 08:55:40;;;;;;;14.98;2.30;;;;;;;6.94;100.00;99714.84;5082144;28;20426;-79
2023/12/26 08:58:15;;;;;;;13.27;1.58;;;;;;;6.93;100.00;99713.25;5066097;28;20437;-80
2023/12/26 09:00:45;;;;;;;13.45;1.88;;;;;;;6.94;100.00;99709.41;5070142;28;20429;-76
2023/12/26 09:03:14;;;;;;;12.13;2.20;;;;;;;6.95;100.00;99716.47;5063412;28;21120;-84
2023/12/26 09:05:47;;;;;;;15.03;2.40;;;;;;;6.93;100.00;99709.69;5067021;28;20430;-78
2023/12/26 09:08:15;;;;;;;8.55;1.73;;;;;;;6.98;100.00;99717.78;5060735;28;20419;-79
2023/12/26 09:10:43;;;;;;;13.43;2.50;;;;;;;7.01;100.00;99728.06;5066452;28;20422;-77
2023/12/26 09:13:21;;;;;;;14.40;2.35;;;;;;;7.05;100.00;99733.72;5081756;28;20425;-79
2023/12/26 09:15:54;;;;;;;13.40;2.25;;;;;;;7.02;100.00;99745.13;5081440;28;20451;-80
2023/12/26 09:18:22;;;;;;;9.68;1.88;;;;;;;7.04;100.00;99738.31;5082168;28;20429;-79
2023/12/26 09:20:50;;;;;;;10.77;1.70;;;;;;;7.04;100.00;99719.38;5085760;28;21338;-78
2023/12/26 09:23:20;;;;;;;13.63;1.95;;;;;;;7.00;100.00;99749.97;5061976;28;20422;-79
2023/12/26 09:25:53;;;;;;;9.10;1.83;;;;;;;7.04;100.00;99759.94;5081504;28;20924;-79
2023/12/26 09:28:27;;;;;;;11.15;1.75;;;;;;;7.04;100.00;99770.78;5064672;28;20421;-80
2023/12/26 09:30:56;;;;;;;15.50;2.20;;;;;;;7.13;100.00;99776.44;5064673;28;20868;-79
2023/12/26 09:33:29;;;;;;;11.90;2.25;;;;;;;7.13;100.00;99771.81;5083147;28;20428;-79
2023/12/26 09:35:59;;;;;;;12.52;2.05;;;;;;;7.09;100.00;99776.16;5063684;28;20835;-79
2023/12/26 09:38:27;;;;;;;9.32;1.83;;;;;;;7.03;100.00;99776.47;5084321;28;20421;-79
2023/12/26 09:41:01;;;;;;;15.75;2.30;;;;;;;7.01;100.00;99771.34;5080621;28;20427;-80
2023/12/26 09:43:31;;;;;;;14.37;1.90;;;;;;;7.06;100.00;99786.75;5065599;28;20432;-79
2023/12/26 09:46:04;;;;;;;12.45;1.95;;;;;;;7.09;100.00;99803.22;5082956;28;20424;-79
2023/12/26 09:48:38;;;;;;;11.63;1.98;;;;;;;7.15;100.00;99804.00;5082822;28;20429;-79
2023/12/26 09:51:19;;;;;;;12.77;2.10;;;;;;;7.12;100.00;99796.44;5062636;28;20432;-79
2023/12/26 09:53:56;;;;;;;10.90;2.17;;;;;;;7.15;100.00;99804.84;5063914;28;20765;-79
2023/12/26 09:56:33;;;;;;;15.80;2.23;;;;;;;7.13;100.00;99798.06;5083922;28;20803;-81
2023/12/26 09:59:04;;;;;;;12.17;2.23;;;;;;;7.08;100.00;99803.50;5062354;28;20429;-79
2023/12/26 10:01:32;;;;;;;17.63;2.55;;;;;;;7.16;100.00;99811.03;5067850;28;20433;-79
2023/12/26 10:04:01;;;;;;;13.55;2.13;;;;;;;7.09;100.00;99803.22;5081786;28;20431;-79
2023/12/26 10:06:35;;;;;;;13.90;2.38;;;;;;;7.21;100.00;99808.31;5062763;28;20445;-79
2023/12/26 10:09:09;;;;;;;14.27;1.90;;;;;;;7.22;100.00;99818.06;5060123;28;20474;-82
2023/12/26 10:11:42;;;;;;;13.38;1.90;;;;;;;7.22;100.00;99818.06;5079699;28;20422;-79
2023/12/26 10:14:28;;;;;;;12.13;2.57;;;;;;;7.36;100.00;99825.53;5075293;28;20756;-81
2023/12/26 10:17:01;;;;;;;12.43;2.10;;;;;;;7.25;100.00;99825.63;5062015;28;20426;-80
2023/12/26 10:19:35;;;;;;;11.57;2.63;;;;;;;7.19;100.00;99829.41;5083764;28;20823;-80
2023/12/26 10:22:08;;;;;;;10.17;1.97;;;;;;;7.21;100.00;99835.38;5065801;28;20421;-80
2023/12/26 10:24:41;;;;;;;16.05;2.25;;;;;;;7.27;100.00;99831.53;5066836;28;20431;-79
2023/12/26 10:27:10;;;;;;;13.60;1.90;;;;;;;7.12;100.00;99843.25;5063875;28;20441;-81
2023/12/26 10:29:51;;;;;;;12.63;2.10;;;;;;;7.10;100.00;99841.94;5083607;28;20450;-77
2023/12/26 10:32:24;;;;;;;14.15;2.25;;;;;;;7.02;100.00;99850.63;5083567;28;20418;-78
2023/12/26 10:34:53;;;;;;;13.47;2.50;;;;;;;6.94;100.00;99844.66;5064758;28;20423;-79
2023/12/26 10:37:26;;;;;;;15.10;2.63;;;;;;;6.91;100.00;99845.22;5079562;28;20896;-78
2023/12/26 10:39:54;;;;;;;15.07;2.25;;;;;;;7.00;100.00;99839.25;5065198;28;20421;-78
2023/12/26 10:42:28;;;;;;;12.50;2.35;;;;;;;7.09;100.00;99843.00;5076323;28;20469;-81
2023/12/26 10:45:05;;;;;;;12.35;1.90;;;;;;;7.11;100.00;99848.94;5078648;28;20433;-78
2023/12/26 10:47:43;;;;;;;13.52;2.08;;;;;;;7.18;100.00;99827.81;5080918;28;20434;-79
2023/12/26 10:50:18;;;;;;;11.50;2.08;;;;;;;7.14;100.00;99859.22;5057985;28;21077;-79
2023/12/26 10:53:06;;;;;;;11.13;2.30;;;;;;;7.25;100.00;99860.78;5083808;28;20869;-80
2023/12/26 10:55:42;;;;;;;12.05;2.10;;;;;;;7.29;100.00;99850.22;5085562;28;20437;-79
2023/12/26 10:58:19;;;;;;;11.40;2.10;;;;;;;7.30;100.00;99855.34;5065056;28;20416;-79
2023/12/26 11:00:54;;;;;;;10.93;2.00;;;;;;;7.31;100.00;99858.88;5063369;28;20437;-79
2023/12/26 13:52:21;;;;;;;11.23;1.92;;;;;;;6.04;100.00;100094.69;5052991;28;20438;-78
2023/12/26 13:55:31;;;;;;;6.93;1.38;;;;;;;5.92;100.00;100121.06;5025956;28;20435;-80
2023/12/26 13:58:37;;;;;;;7.07;1.50;;;;;;;5.83;100.00;100122.63;5025887;28;20438;-78
2023/12/26 14:01:48;;;;;;;5.88;1.27;;;;;;;5.77;100.00;100122.63;5028512;28;20430;-79
2023/12/26 14:04:54;;;;;;;5.75;1.40;;;;;;;5.64;100.00;100125.78;5048441;28;20418;-79
2023/12/26 14:07:59;;;;;;;9.00;1.35;;;;;;;5.62;100.00;100144.94;5043353;28;20419;-78
2023/12/26 14:11:10;;;;;;;7.50;1.45;;;;;;;5.55;100.00;100144.34;5030582;28;20436;-80
2023/12/26 14:14:16;;;;;;;7.78;1.17;;;;;;;5.53;100.00;100149.19;5031380;28;20423;-78
2023/12/26 14:17:22;;;;;;;5.03;0.90;;;;;;;5.43;100.00;100155.31;5024269;28;20448;-81
2023/12/26 14:20:27;;;;;;;5.28;1.30;;;;;;;5.40;100.00;100153.16;5039870;28;20431;-79
2023/12/26 14:23:38;;;;;;;7.97;1.25;;;;;;;5.45;100.00;100164.00;5023858;28;20450;-77
2023/12/26 14:26:43;;;;;;;4.40;0.90;;;;;;;5.33;100.00;100174.16;5023327;28;21876;-80
2023/12/26 14:29:49;;;;;;;5.90;0.85;;;;;;;5.35;100.00;100163.91;5025389;28;20431;-79
2023/12/26 14:32:55;;;;;;;6.45;0.85;;;;;;;5.32;100.00;100177.06;5039423;28;20431;-80
2023/12/26 14:36:00;;;;;;;6.72;0.90;;;;;;;5.28;100.00;100171.41;5035816;28;20442;-78
2023/12/26 14:39:06;;;;;;;4.88;0.80;;;;;;;5.32;100.00;100175.22;5044103;28;20872;-78
2023/12/26 14:42:12;;;;;;;6.60;1.10;;;;;;;5.29;100.00;100197.31;5026039;28;20439;-78
2023/12/26 14:45:22;;;;;;;6.28;0.82;;;;;;;5.28;100.00;100203.78;5038930;28;20939;-79
2023/12/26 14:48:33;;;;;;;6.47;1.05;;;;;;;5.20;100.00;100207.75;5029542;28;20518;-80